• Join FlightAware (Why Join?)
  • Login
  • US Flag 
12:31AM EDT


 

Airport Tracker/Info


-or-


 

Live Flight TrackerFlight Track Log ✈ PDT4226 ✈ 16-Oct-2013 ✈ KPHL - KBGM

Flight Track Log - Related Links

Times and Time Zones

All times are in EDT time to prevent confusion due to time zone crossing. See the PDT4226 flight status page for this flight to view local times or setup timezone preferences in your user account.

Time Position Orientation Groundspeed Altitude Reporting Facility
EDT Latitude Longitude Course Direction KTS MPH feet Rate Location/Type
12:36PM 39.8833 -75.2000 311° West 123 142 600  Level Philadelphia TRACON
12:38PM 39.9333 -75.1667 27° Northeast 148 170 2,900 1,380 Climbing Philadelphia TRACON
12:39PM 40.0700 -75.3014 323° Northwest  Level Estimated
12:39PM 39.9667 -75.1667 360° North 146 168 4,000  Level Philadelphia TRACON
12:40PM 40.1359 -75.3216 311° West  Level Estimated
12:40PM 40.0167 -75.1833 346° North 156 180 5,600  Level Philadelphia TRACON
12:41PM 40.2018 -75.3419 311° West  Level Estimated
12:41PM 40.0500 -75.2167 323° Northwest 147 169 7,000  Level Philadelphia TRACON
12:42PM 40.0667 -75.2667 294° West 148 170 8,300 900 Climbing Philadelphia TRACON
12:43PM 40.1000 -75.3167 311° West 167 192 9,000 240 Climbing Philadelphia TRACON
12:44PM 40.1408 -75.4139 299° West 229 264 9,000  Level New York Center
12:45PM 40.1739 -75.4758 305° West 229 264 9,000  Level New York Center
12:46PM 40.2128 -75.5439 307° West 229 264 9,000 2,460 Level New York Center
12:47PM 40.2561 -75.6094 311° West 229 264 14,000 900 Climbing New York Center
12:48PM 40.2914 -75.6636 311° West 210 242 10,900 -1,140 Descending New York Center
12:49PM 40.3225 -75.7147 309° West 195 224 11,800 900 Climbing New York Center
12:50PM 40.3719 -75.7319 345° North 182 209 12,800 900 Climbing New York Center
12:51PM 40.4167 -75.7597 335° Northwest 182 209 13,700 600 Climbing New York Center
12:52PM 40.4692 -75.7961 332° Northwest 182 209 14,000 120 Climbing New York Center
12:53PM 40.5283 -75.8250 340° North 207 238 14,000  Level New York Center
12:54PM 40.5894 -75.8597 337° Northwest 232 267 14,000  Level New York Center
12:55PM 40.6467 -75.8858 341° North 244 281 14,000  Level New York Center
12:56PM 40.7119 -75.9153 341° North 244 281 14,000  Level New York Center
12:57PM 40.7789 -75.9614 332° Northwest 244 281 14,000  Level New York Center
12:58PM 40.8397 -75.9964 336° Northwest 244 281 14,000  Level New York Center
12:59PM 40.9031 -76.0286 339° North 244 281 14,000  Level New York Center
01:00PM 40.9639 -76.0661 335° Northwest 244 281 14,000  Level New York Center
01:01PM 41.0292 -76.0961 341° North 239 275 14,000  Level New York Center
01:02PM 41.0881 -76.1311 336° Northwest 239 275 14,000  Level New York Center
01:03PM 41.1450 -76.1575 341° North 239 275 14,000  Level New York Center
01:04PM 41.2061 -76.1872 340° North 239 275 14,000  Level New York Center
01:05PM 41.2764 -76.2039 350° North 239 275 14,100  Climbing New York Center
01:06PM 41.3456 -76.1956 North 239 275 14,100  Level New York Center
01:07PM 41.4142 -76.1931 North 239 275 14,100  Level New York Center
01:08PM 41.4747 -76.1894 North 239 275 14,100  Level New York Center
01:09PM 41.5439 -76.1839 North 239 275 14,100 -300 Level New York Center
01:10PM 41.6211 -76.1764 North 244 281 13,500 -900 Descending New York Center
01:11PM 41.6969 -76.1603 North 264 304 12,400 -1,200 Descending New York Center
01:12PM 41.7736 -76.1247 19° North 282 325 11,100 -1,320 Descending New York Center
01:13PM 41.8453 -76.1056 11° North 287 330 9,800 -1,620 Descending New York Center
01:14PM 41.9197 -76.0697 20° North 287 330 7,900 -1,980 Descending New York Center
01:15PM 42.0006 -76.0314 19° North 282 325 5,900 -1,800 Descending New York Center
01:16PM 42.0683 -76.0033 17° North 282 325 4,400 -1,380 Descending New York Center
01:17PM 42.1322 -75.9692 22° Northeast 265 305 3,200 -900 Descending New York Center
01:18PM 42.1806 -75.9619 North 218 251 2,600 -600 Descending New York Center
01:19PM 42.2114 -75.9672 353° North 138 159 2,000 -600 Descending New York Center